Date,TemperatureHighF,TemperatureAvgF,TemperatureLowF,DewpointHighF,DewpointAvgF,DewpointLowF,HumidityHigh,HumidityAvg,HumidityLow,PressureMaxIn,PressureMinIn,WindSpeedMaxMPH,WindSpeedAvgMPH,GustSpeedMaxMPH,PrecipitationSumIn
2013-1-1,41.0,37.7,33.0,29.0,17.9,4.0,83,48,22,0.00,40.00,28,17,46,0.02
2013-1-2,53.0,44.0,39.0,7.0,2.5,-4.0,24,18,11,0.00,40.00,33,22,51,0.00
2013-1-3,53.0,46.0,40.0,3.0,-1.9,-9.0,19,13,9,0.00,40.00,24,17,41,0.00
2013-1-4,53.0,44.4,39.0,2.0,-4.9,-11.0,16,12,9,0.00,40.00,17,12,29,0.00
2013-1-5,53.0,44.6,40.0,10.0,0.8,-6.0,28,16,11,0.00,40.00,15,8,26,0.00
2013-1-6,43.0,38.2,33.0,37.0,28.9,10.0,100,72,28,0.00,40.00,10,5,18,0.00
2013-1-7,56.0,43.8,32.0,34.0,19.9,8.0,100,47,17,0.00,40.00,16,6,30,0.00
2013-1-8,69.0,53.9,41.0,27.0,18.8,7.0,37,25,19,0.00,40.00,13,4,20,0.00
2013-1-9,66.0,54.1,43.0,36.0,28.1,22.0,77,38,25,0.00,40.00,11,6,19,0.00
2013-1-10,46.0,36.6,29.0,41.0,32.9,18.0,100,88,55,0.00,40.00,18,9,34,0.22
2013-1-11,40.0,31.8,25.0,25.0,18.3,13.0,86,59,37,0.00,40.00,10,4,21,0.01
2013-1-12,43.0,30.8,25.0,24.0,9.9,-99.9,88,53,19,0.00,40.00,9,3,20,0.00
2013-1-13,44.0,33.2,28.0,13.0,6.3,2.0,50,32,20,0.00,40.00,13,9,21,0.00
2013-1-14,38.0,30.3,23.0,2.0,-6.3,-14.0,34,21,10,0.00,40.00,18,9,30,0.00
2013-1-15,49.0,37.6,30.0,16.0,7.5,-5.0,40,29,17,0.00,40.00,19,10,36,0.00
2013-1-16,55.0,47.0,38.0,18.0,12.5,3.0,40,26,12,0.00,40.00,35,18,58,0.00
2013-1-17,59.0,53.1,50.0,7.0,4.6,1.0,16,14,11,0.00,40.00,29,24,52,0.00
2013-1-18,60.0,53.0,49.0,11.0,8.2,5.0,19,16,13,0.00,40.00,24,18,40,0.00
2013-1-19,61.0,53.7,49.0,8.0,3.1,-1.0,18,13,9,0.00,40.00,20,16,35,0.00
2013-1-20,63.0,55.8,51.0,1.0,-2.5,-11.0,11,9,6,0.00,40.00,17,13,27,0.00
2013-1-21,65.0,58.2,54.0,-2.0,-4.3,-6.0,9,8,6,0.00,40.00,22,16,37,0.00
2013-1-22,65.0,57.6,53.0,7.0,-0.4,-9.0,13,9,7,0.00,40.00,18,13,28,0.00
2013-1-23,66.0,58.0,53.0,35.0,21.1,5.0,47,26,13,0.00,40.00,12,5,21,0.00
2013-1-24,58.0,50.3,45.0,52.0,42.5,31.0,96,75,47,0.00,40.00,15,6,24,0.21
2013-1-25,51.0,49.5,48.0,49.0,47.3,43.0,99,93,75,0.00,40.00,19,12,31,0.47
2013-1-26,52.0,49.4,46.0,51.0,48.8,46.0,100,98,92,0.00,40.00,10,4,17,0.38
2013-1-27,47.0,41.8,36.0,47.0,41.3,35.0,100,98,88,0.00,40.00,12,8,22,0.20
2013-1-28,45.0,35.7,30.0,36.0,27.3,20.0,100,74,43,0.00,40.00,12,4,25,0.16
2013-1-29,48.0,37.8,31.0,38.0,31.3,23.0,99,79,56,0.00,40.00,11,4,19,0.04
2013-1-30,57.0,49.6,40.0,31.0,27.6,25.0,70,43,33,0.00,40.00,20,10,36,0.00
2013-1-31,62.0,56.0,49.0,30.0,27.0,25.0,48,33,26,0.00,40.00,18,11,28,0.00
2013-2-1,70.0,56.2,49.0,30.0,24.2,19.0,48,29,15,0.00,40.00,12,6,19,0.00
2013-2-2,64.0,57.5,54.0,31.0,24.5,17.0,37,28,17,0.00,40.00,14,9,26,0.00
2013-2-3,63.0,52.9,46.0,44.0,40.0,26.0,90,63,33,0.00,40.00,7,2,11,0.00
2013-2-4,69.0,53.9,44.0,41.0,35.4,26.0,77,54,23,0.00,40.00,8,2,18,0.00
2013-2-5,65.0,52.7,45.0,44.0,35.0,26.0,91,55,24,0.00,40.00,8,3,16,0.00
2013-2-6,56.0,44.8,38.0,42.0,38.8,27.0,100,82,48,0.00,40.00,7,2,12,0.00
2013-2-7,60.0,47.9,37.0,43.0,32.0,22.0,100,58,27,0.00,40.00,15,5,24,0.00
2013-2-8,38.0,33.2,30.0,38.0,33.2,30.0,100,100,100,0.00,40.00,15,8,32,0.16
2013-2-9,39.0,32.7,27.0,36.0,31.2,27.0,100,95,75,0.00,40.00,13,5,18,0.29
2013-2-10,39.0,34.6,29.0,35.0,31.0,28.0,100,87,66,0.00,40.00,9,3,13,0.25
2013-2-11,49.0,38.0,31.0,34.0,23.3,5.0,100,61,27,0.00,40.00,7,2,12,0.07
2013-2-12,55.0,40.5,32.0,22.0,13.9,6.0,52,35,19,0.00,40.00,6,2,14,0.04
2013-2-13,62.0,48.4,37.0,27.0,19.4,9.0,52,33,17,0.00,40.00,6,1,14,0.00
2013-2-14,63.0,54.0,43.0,25.0,19.5,13.0,48,27,16,0.00,40.00,18,9,28,0.00
2013-2-15,61.0,56.2,52.0,18.0,9.5,3.0,25,16,11,0.00,40.00,25,20,48,0.00
2013-2-16,64.0,56.1,49.0,11.0,6.1,2.0,20,13,11,0.00,40.00,22,14,35,0.00
2013-2-17,61.0,51.4,41.0,37.0,18.3,6.0,75,32,14,0.00,40.00,12,3,22,0.00
2013-2-18,64.0,47.2,36.0,39.0,30.2,16.0,99,56,17,0.00,40.00,7,2,17,0.00
2013-2-19,39.0,35.4,33.0,39.0,35.3,33.0,100,99,95,0.00,40.00,13,9,26,0.47
2013-2-20,42.0,32.9,28.0,34.0,31.2,28.0,100,94,72,0.00,40.00,12,7,24,0.52
2013-2-21,46.0,36.9,32.0,34.0,28.8,21.0,99,75,43,0.00,40.00,8,3,14,0.02
2013-2-22,55.0,42.3,32.0,34.0,22.5,13.0,82,49,27,0.00,40.00,8,2,15,0.00
2013-2-23,54.0,43.8,36.0,34.0,27.6,21.0,82,55,32,0.00,40.00,12,5,23,0.00
2013-2-24,54.0,42.7,34.0,29.0,5.9,-10.0,73,28,9,0.00,40.00,14,6,26,0.00
2013-2-25,60.0,46.8,37.0,22.0,8.4,0.0,53,23,11,0.00,40.00,8,4,14,0.00
2013-2-26,56.0,46.8,36.0,22.0,7.8,-2.0,52,23,12,0.00,40.00,23,11,36,0.00
2013-2-27,55.0,47.4,39.0,7.0,3.0,-1.0,23,16,11,0.00,40.00,19,15,34,0.00
2013-2-28,63.0,54.7,47.0,8.0,3.3,-3.0,17,12,10,0.00,40.00,18,13,31,0.00
2013-3-1,67.0,60.8,55.0,17.0,10.4,6.0,18,14,12,0.00,40.00,27,18,45,0.00
2013-3-2,76.0,62.4,51.0,21.0,17.8,12.0,27,18,11,0.00,40.00,14,8,24,0.00
2013-3-3,62.0,54.1,43.0,33.0,22.4,15.0,66,31,19,0.00,40.00,14,6,25,0.00
2013-3-4,60.0,48.5,38.0,42.0,38.4,32.0,98,70,45,0.00,40.00,9,3,15,0.00
2013-3-5,66.0,53.2,43.0,44.0,36.4,29.0,100,58,28,0.00,40.00,10,4,25,0.00
2013-3-6,53.0,43.2,37.0,43.0,38.4,35.0,100,85,51,0.00,40.00,11,7,20,0.01
2013-3-7,43.0,39.7,35.0,42.0,38.8,32.0,100,97,89,0.00,40.00,13,5,22,0.14
2013-3-8,39.0,34.9,32.0,37.0,34.1,32.0,100,97,82,0.00,40.00,11,6,25,0.90
2013-3-9,46.0,38.6,34.0,41.0,37.4,34.0,100,96,80,0.00,40.00,9,4,17,0.50
2013-3-10,63.0,51.0,36.0,38.0,23.6,6.0,99,41,11,0.00,40.00,12,3,22,0.04
2013-3-11,72.0,57.6,46.0,34.0,19.1,8.0,50,23,13,0.00,40.00,10,4,17,0.00
2013-3-12,73.0,62.5,52.0,36.0,20.2,11.0,40,21,12,0.00,40.00,18,7,31,0.00
2013-3-13,79.0,67.8,56.0,32.0,19.6,15.0,32,17,10,0.00,40.00,19,10,32,0.00
2013-3-14,83.0,70.1,62.0,33.0,25.1,20.0,29,19,12,0.00,40.00,12,6,19,0.00
2013-3-15,81.0,66.6,56.0,37.0,28.7,19.0,43,25,14,0.00,40.00,10,2,16,0.00
2013-3-16,71.0,59.7,51.0,44.0,27.7,17.0,78,33,17,0.00,40.00,10,3,17,0.00
2013-3-17,69.0,56.2,48.0,45.0,38.6,30.0,79,55,26,0.00,40.00,11,3,16,0.00
2013-3-18,67.0,53.1,43.0,47.0,40.5,31.0,97,66,32,0.00,40.00,7,3,14,0.00
2013-3-19,68.0,54.7,44.0,46.0,42.5,34.0,99,67,31,0.00,40.00,9,3,20,0.00
2013-3-20,66.0,57.5,49.0,45.0,37.4,33.0,86,49,33,0.00,40.00,11,4,20,0.00
2013-3-21,65.0,53.6,46.0,45.0,41.4,37.0,94,67,38,0.00,40.00,10,4,18,0.00
2013-3-22,69.0,52.2,41.0,47.0,42.8,35.0,100,76,28,0.00,40.00,8,2,16,0.00
2013-3-23,70.0,55.1,43.0,47.0,23.3,4.0,99,39,10,0.00,40.00,18,5,30,0.00
2013-3-24,74.0,57.6,47.0,41.0,24.5,10.0,63,33,12,0.00,40.00,10,4,17,0.00
2013-3-25,76.0,60.2,51.0,39.0,30.1,21.0,58,35,13,0.00,40.00,7,2,15,0.00
2013-3-26,67.0,55.3,47.0,36.0,26.9,16.0,56,36,18,0.00,40.00,11,3,20,0.00
2013-3-27,65.0,52.6,44.0,40.0,32.4,24.0,65,47,35,0.00,40.00,11,4,19,0.00
2013-3-28,71.0,62.8,53.0,42.0,35.2,27.0,61,39,21,0.00,40.00,11,6,19,0.00
2013-3-29,74.0,60.6,51.0,47.0,37.9,32.0,77,47,22,0.00,40.00,8,2,18,0.00
2013-3-30,70.0,59.0,48.0,47.0,38.8,-99.9,83,52,28,0.00,40.00,9,4,18,0.00
2013-3-31,61.0,50.9,44.0,46.0,41.8,35.0,97,73,48,0.00,40.00,14,6,22,0.00
2013-4-1,59.0,48.0,42.0,46.0,41.8,39.0,99,82,50,0.00,40.00,11,8,22,0.00
2013-4-2,69.0,54.1,43.0,45.0,42.0,36.0,99,68,32,0.00,40.00,9,4,15,0.00
2013-4-3,78.0,63.0,50.0,43.0,34.8,22.0,64,39,13,0.00,40.00,9,3,36,0.00
2013-4-4,72.0,60.7,52.0,43.0,36.6,29.0,70,42,20,0.00,40.00,12,5,22,0.00
2013-4-5,63.0,53.3,44.0,50.0,46.2,43.0,99,79,54,0.00,40.00,12,6,20,0.00
2013-4-6,68.0,53.1,45.0,49.0,47.1,45.0,100,83,47,0.00,40.00,9,4,18,0.00
2013-4-7,68.0,55.0,45.0,51.0,47.6,45.0,100,79,48,0.00,40.00,11,3,18,0.00
2013-4-8,49.0,42.1,38.0,48.0,41.5,37.0,100,98,89,0.00,40.00,26,11,41,0.08
2013-4-9,64.0,47.3,35.0,37.0,26.9,6.0,98,55,11,0.00,40.00,10,5,22,0.01
2013-4-10,75.0,59.1,44.0,29.0,18.8,8.0,42,24,8,0.00,40.00,8,3,22,0.00
2013-4-11,73.0,58.2,48.0,45.0,28.0,15.0,79,36,18,0.00,40.00,12,4,20,0.00
2013-4-12,76.0,59.7,48.0,49.0,38.7,28.0,79,49,18,0.00,40.00,13,2,22,0.00
2013-4-13,68.0,59.5,45.0,48.0,39.5,31.0,99,50,28,0.00,40.00,13,5,21,0.00
2013-4-14,48.0,43.9,41.0,46.0,43.6,41.0,100,99,87,0.00,40.00,10,8,18,0.00
2013-4-15,47.0,42.9,40.0,46.0,42.5,40.0,100,98,88,0.00,40.00,14,9,26,0.03
2013-4-16,49.0,40.9,34.0,40.0,35.7,31.0,100,83,55,0.00,40.00,14,9,30,0.01
2013-4-17,62.0,46.7,33.0,34.0,18.1,3.0,91,42,10,0.00,40.00,12,3,22,0.00
2013-4-18,62.0,52.5,46.0,5.0,2.1,-1.0,17,13,8,0.00,40.00,21,12,33,0.00
2013-4-19,75.0,61.1,49.0,14.0,5.4,-3.0,19,11,8,0.00,40.00,16,9,30,0.00
2013-4-20,81.0,64.8,53.0,32.0,19.2,10.0,31,18,9,0.00,40.00,18,4,31,0.00
2013-4-21,82.0,67.9,56.0,32.0,25.6,21.0,33,22,11,0.00,40.00,10,3,21,0.00
2013-4-22,74.0,61.9,49.0,38.0,29.1,22.0,60,31,16,0.00,40.00,13,4,21,0.00
2013-4-23,75.0,61.6,47.0,45.0,28.0,12.0,69,37,10,0.00,40.00,23,5,42,0.00
2013-4-24,72.0,56.0,46.0,49.0,41.6,15.0,100,65,13,0.00,40.00,12,4,20,0.00
2013-4-25,61.0,48.5,41.0,46.0,43.2,41.0,100,84,51,0.00,40.00,11,6,18,0.00
2013-4-26,78.0,60.5,44.0,47.0,41.9,31.0,98,59,18,0.00,40.00,7,2,16,0.00
2013-4-27,85.0,68.9,57.0,41.0,30.8,18.0,56,29,11,0.00,40.00,11,3,21,0.00
2013-4-28,85.0,69.9,61.0,37.0,28.9,21.0,33,23,10,0.00,40.00,10,3,20,0.00
2013-4-29,83.0,75.3,61.0,35.0,27.8,15.0,24,17,14,0.00,40.00,7,4,18,0.00
2013-4-30,70.0,60.0,48.0,50.0,43.3,31.0,99,59,34,0.00,40.00,11,5,21,0.00
2013-5-1,77.0,61.6,46.0,49.0,23.3,-10.0,100,48,4,0.00,40.00,20,9,35,0.00
2013-5-2,74.0,67.6,63.0,-5.0,-9.1,-17.0,6,4,3,0.00,40.00,27,19,50,0.00
2013-5-3,79.0,69.4,60.0,16.0,4.3,-7.0,13,8,5,0.00,40.00,15,8,26,0.00
2013-5-4,74.0,61.8,48.0,48.0,20.7,4.0,99,30,7,0.00,40.00,13,5,23,0.00
2013-5-5,59.0,48.0,44.0,48.0,44.4,43.0,100,89,55,0.00,40.00,13,7,23,0.00
2013-5-6,50.0,46.1,43.0,50.0,46.0,43.0,100,100,98,0.00,40.00,15,8,25,0.37
2013-5-7,55.0,47.5,42.0,48.0,43.8,41.0,100,88,67,0.00,40.00,12,6,23,0.11
2013-5-8,59.0,50.5,43.0,47.0,44.0,42.0,98,80,59,0.00,40.00,8,5,16,0.01
2013-5-9,66.0,52.6,42.0,52.0,47.2,42.0,100,84,54,0.00,40.00,9,3,22,0.06
2013-5-10,79.0,62.2,47.0,48.0,40.2,-99.9,94,54,24,0.00,40.00,9,3,21,0.07
2013-5-11,84.0,70.6,59.0,46.0,32.3,-99.9,59,30,11,0.00,40.00,17,6,30,0.01
2013-5-12,88.0,77.7,66.0,37.0,29.1,16.0,32,19,7,0.00,40.00,11,4,22,0.00
2013-5-13,92.0,78.7,68.0,39.0,31.2,25.0,28,19,10,0.00,40.00,11,4,22,0.00
2013-5-14,83.0,70.8,57.0,35.0,25.8,17.0,36,20,9,0.00,40.00,13,5,26,0.00
2013-5-15,74.0,62.0,53.0,45.0,32.2,18.0,72,35,14,0.00,40.00,13,5,21,0.00
2013-5-16,71.0,53.8,50.0,51.0,30.4,-99.9,96,66,36,0.00,40.00,13,4,23,0.00
2013-5-17,69.0,54.3,47.0,52.0,45.1,-99.9,100,84,44,0.00,40.00,12,6,22,0.00
2013-5-18,73.0,56.8,48.0,51.0,48.6,45.0,100,78,39,0.00,40.00,10,6,19,0.00
2013-5-19,82.0,62.9,47.0,53.0,47.9,42.0,99,65,25,0.00,40.00,9,3,16,0.00
2013-5-20,85.0,69.5,58.0,47.0,33.1,15.0,67,31,10,0.00,40.00,17,5,33,0.00
2013-5-21,82.0,71.1,57.0,43.0,33.7,24.0,49,27,13,0.00,40.00,11,5,24,0.00
2013-5-22,71.0,60.8,48.0,48.0,39.6,29.0,99,49,25,0.00,40.00,15,6,26,0.00
2013-5-23,67.0,53.8,44.0,48.0,43.1,34.0,99,72,30,0.00,40.00,12,7,23,0.00
2013-5-24,70.0,56.7,44.0,47.0,38.8,28.0,99,58,21,0.00,40.00,10,5,19,0.00
2013-5-25,68.0,54.3,43.0,44.0,37.0,14.0,96,58,12,0.00,40.00,13,4,24,0.00
2013-5-26,69.0,55.9,46.0,48.0,42.7,35.0,98,66,35,0.00,40.00,15,5,24,0.00
2013-5-27,75.0,60.9,48.0,51.0,45.8,41.0,86,61,30,0.00,40.00,10,5,20,0.00
2013-5-28,70.0,56.0,48.0,53.0,49.6,47.0,99,81,47,0.00,40.00,10,6,19,0.00
2013-5-29,83.0,65.5,52.0,55.0,46.0,33.0,97,57,21,0.00,40.00,10,4,20,0.00
2013-5-30,82.0,68.7,55.0,55.0,46.2,41.0,86,49,23,0.00,40.00,9,3,24,0.00
2013-5-31,89.0,69.3,56.0,50.0,46.1,21.0,72,49,9,0.00,40.00,13,2,26,0.00
2013-6-1,94.0,80.9,68.0,50.0,32.4,17.0,50,21,7,0.00,40.00,16,7,29,0.00
2013-6-2,84.0,72.0,57.0,50.0,41.2,22.0,75,36,10,0.00,40.00,10,3,19,0.00
2013-6-3,80.0,66.7,54.0,52.0,45.7,38.0,85,50,25,0.00,40.00,11,3,20,0.00
2013-6-4,78.0,64.5,52.0,51.0,44.4,29.0,90,54,18,0.00,40.00,12,4,21,0.00
2013-6-5,83.0,68.7,54.0,52.0,45.3,39.0,81,48,23,0.00,40.00,9,3,16,0.00
2013-6-6,84.0,70.8,61.0,53.0,38.3,10.0,73,36,12,0.00,40.00,9,3,18,0.00
2013-6-7,90.0,76.2,62.0,54.0,38.6,4.0,73,31,8,0.00,40.00,7,2,17,0.00
2013-6-8,90.0,77.9,64.0,55.0,45.1,27.0,67,35,11,0.00,40.00,8,3,17,0.00
2013-6-9,87.0,73.3,62.0,55.0,36.6,15.0,67,31,11,0.00,40.00,12,3,21,0.00
2013-6-10,78.0,68.0,56.0,42.0,32.0,12.0,46,28,12,0.00,40.00,13,6,26,0.00
2013-6-11,90.0,73.9,56.0,50.0,30.0,10.0,51,25,9,0.00,40.00,10,3,18,0.00
2013-6-12,84.0,73.1,60.0,51.0,43.2,32.0,62,36,25,0.00,40.00,12,5,22,0.00
2013-6-13,86.0,70.4,55.0,50.0,42.7,33.0,70,42,17,0.00,40.00,10,4,17,0.00
2013-6-14,83.0,71.1,58.0,50.0,34.2,11.0,69,32,9,0.00,40.00,12,4,20,0.00
2013-6-15,79.0,65.2,55.0,42.0,33.3,15.0,58,35,9,0.00,40.00,10,3,18,0.00
2013-6-16,85.0,65.7,53.0,46.0,37.3,13.0,59,39,8,0.00,40.00,10,3,20,0.00
2013-6-17,85.0,70.6,60.0,45.0,39.4,33.0,57,34,16,0.00,40.00,11,3,21,0.00
2013-6-18,85.0,70.3,57.0,46.0,40.1,27.0,62,36,14,0.00,40.00,13,4,21,0.00
2013-6-19,82.0,65.2,54.0,46.0,41.1,32.0,67,44,20,0.00,40.00,13,4,21,0.00
2013-6-20,82.0,65.0,56.0,46.0,38.7,31.0,65,43,16,0.00,40.00,12,4,20,0.00
2013-6-21,82.0,78.4,73.0,42.0,36.4,31.0,33,23,17,0.00,40.00,10,9,21,0.00
2013-6-22,82.0,72.2,53.0,46.0,40.6,34.0,66,34,21,0.00,40.00,10,6,20,0.00
2013-6-23,75.0,64.3,52.0,49.0,43.9,39.0,87,50,28,0.00,40.00,12,5,22,0.00
2013-6-24,72.0,57.1,50.0,56.0,51.1,48.0,100,83,44,0.00,40.00,12,5,19,0.00
2013-6-25,82.0,65.8,52.0,56.0,52.1,49.0,98,66,32,0.00,40.00,11,4,20,0.00
2013-6-26,92.0,78.4,64.0,55.0,50.1,44.0,72,40,20,0.00,40.00,9,4,19,0.00
2013-6-27,95.0,79.4,69.0,54.0,49.3,42.0,56,38,17,0.00,40.00,9,3,19,0.00
2013-6-28,98.0,82.5,70.0,51.0,43.1,35.0,47,27,11,0.00,40.00,11,4,20,0.00
2013-6-29,102.0,95.2,87.0,43.0,5.3,-99.9,19,10,9,0.00,40.00,8,-221,18,0.00
2013-6-30,106.0,95.3,84.0,52.0,45.5,33.0,28,20,8,0.00,40.00,11,7,22,0.00
2013-7-1,92.0,89.6,84.0,46.0,40.6,35.0,23,18,14,0.00,40.00,12,8,22,0.00
2013-7-2,94.0,88.2,77.0,56.0,48.1,41.0,45,27,16,0.00,40.00,11,8,24,0.00
2013-7-3,95.0,86.2,80.0,45.0,41.4,37.0,29,21,16,0.00,40.00,10,8,18,0.00
2013-7-4,93.0,87.1,81.0,41.0,23.8,-99.9,20,16,13,0.00,40.00,11,-95,20,0.00
2013-7-5,93.0,84.7,79.0,46.0,42.5,35.0,31,23,17,0.00,40.00,11,8,18,0.00
2013-7-6,92.0,85.7,80.0,53.0,47.0,44.0,34,27,21,0.00,40.00,9,6,19,0.00
2013-7-7,94.0,90.1,88.0,31.0,29.3,26.0,12,11,9,0.00,40.00,11,8,22,0.00
2013-7-8,98.0,94.8,93.0,33.0,28.3,23.0,12,10,7,0.00,40.00,10,10,20,0.00
2013-7-9,100.0,91.6,80.0,68.0,45.1,30.0,68,25,11,0.00,40.00,11,8,21,0.00
2013-7-10,87.0,79.4,72.0,52.0,47.9,41.0,44,34,20,0.00,40.00,11,8,15,0.00
2013-7-11,75.0,73.2,71.0,59.0,55.1,50.0,61,53,41,0.00,40.00,6,3,12,0.00
2013-7-12,88.0,83.6,75.0,57.0,46.4,-99.9,51,34,26,0.00,40.00,9,-40,21,0.00
2013-7-13,92.0,86.8,80.0,46.0,37.5,31.0,26,18,12,0.00,40.00,9,6,19,0.00
2013-7-14,94.0,90.8,86.0,45.0,42.9,39.0,22,19,16,0.00,40.00,10,7,20,0.00
2013-7-15,88.0,84.2,79.0,41.0,35.7,30.0,21,18,13,0.00,40.00,13,10,23,0.00
2013-7-16,87.0,82.7,75.0,31.0,23.7,15.0,20,12,7,0.00,40.00,11,9,22,0.00
2013-7-17,89.0,83.3,79.0,37.0,-5.3,-99.9,21,9,6,0.00,40.00,10,-232,18,0.00
2013-7-18,92.0,86.8,81.0,40.0,26.3,16.0,23,12,6,0.00,40.00,9,7,15,0.00
2013-7-19,95.0,88.1,82.0,53.0,44.3,35.0,33,23,14,0.00,40.00,9,6,16,0.00
2013-7-20,89.0,76.7,72.0,68.0,60.5,-99.9,85,63,34,0.00,40.00,13,9,22,0.00
2013-7-21,77.0,72.4,66.0,67.0,48.8,-99.9,79,64,56,0.00,40.00,17,-69,24,0.00
2013-7-22,80.0,77.2,72.0,61.0,55.8,-99.9,61,53,51,0.00,40.00,8,-18,17,0.00
2013-7-23,87.0,81.2,73.0,57.0,38.8,-99.9,49,34,30,0.00,40.00,9,-88,18,0.00
2013-7-24,89.0,81.0,70.0,56.0,30.0,-99.9,59,32,25,0.00,40.00,10,-138,20,10.45
2013-7-25,95.0,79.9,68.0,52.0,47.7,42.0,57,35,18,0.00,40.00,10,4,21,10.45
2013-7-26,91.0,77.8,70.0,58.0,50.8,44.0,61,40,24,0.00,40.00,6,2,13,0.00
2013-7-27,90.0,76.5,67.0,58.0,53.4,49.0,66,47,26,0.00,40.00,11,3,22,0.00
2013-7-28,84.0,70.5,63.0,52.0,40.7,26.0,60,38,12,0.00,40.00,13,3,21,0.00
2013-7-29,86.0,72.6,61.0,44.0,35.5,25.0,49,28,15,0.00,40.00,11,4,21,0.00
2013-7-30,87.0,72.6,61.0,50.0,45.8,42.0,60,41,22,0.00,40.00,9,3,20,0.00
2013-7-31,88.0,71.4,62.0,51.0,44.7,29.0,64,43,13,0.00,40.00,11,3,18,0.00
2013-8-1,83.0,67.5,60.0,49.0,37.4,30.0,63,36,17,0.00,40.00,9,3,21,0.00
2013-8-2,84.0,67.2,58.0,48.0,41.0,30.0,63,41,14,0.00,40.00,10,2,20,0.00
2013-8-3,90.0,71.5,58.0,49.0,41.1,24.0,63,38,12,0.00,40.00,9,3,19,0.00
2013-8-4,88.0,72.9,62.0,50.0,42.1,30.0,61,38,13,0.00,40.00,9,3,19,0.00
2013-8-5,91.0,77.8,64.0,42.0,33.2,22.0,42,22,8,0.00,40.00,10,5,19,0.00
2013-8-6,87.0,74.5,63.0,41.0,29.4,11.0,43,22,7,0.00,40.00,10,5,19,0.00
2013-8-7,83.0,68.2,60.0,41.0,32.8,19.0,42,29,11,0.00,40.00,12,4,21,0.00
2013-8-8,83.0,70.8,61.0,41.0,28.6,18.0,43,22,10,0.00,40.00,12,5,25,0.00
2013-8-9,81.0,68.9,61.0,30.0,26.7,18.0,29,22,10,0.00,40.00,10,4,19,0.00
2013-8-10,80.0,67.8,57.0,44.0,35.9,26.0,51,33,15,0.00,40.00,10,4,19,0.00
2013-8-11,85.0,70.0,60.0,48.0,40.5,29.0,57,38,14,0.00,40.00,10,3,19,0.00
2013-8-12,87.0,74.0,63.0,48.0,39.1,32.0,57,31,14,0.00,40.00,10,4,24,0.00
2013-8-13,91.0,75.6,67.0,46.0,37.4,-99.9,44,28,12,0.00,40.00,9,2,20,0.00
2013-8-14,95.0,80.7,71.0,45.0,26.9,-99.9,39,19,8,0.00,40.00,10,4,21,0.00
2013-8-15,94.0,73.1,72.0,40.0,23.2,-99.9,29,19,9,0.00,40.00,10,3,21,0.00
2013-8-16,93.0,80.5,73.0,48.0,37.9,-99.9,38,24,16,0.00,40.00,9,6,23,0.00
2013-8-17,95.0,82.6,70.0,50.0,41.2,-99.9,41,25,14,0.00,40.00,10,4,20,0.00
2013-8-18,95.0,81.7,72.0,49.0,45.5,41.0,39,29,19,0.00,40.00,20,8,31,0.00
2013-8-19,90.0,77.6,71.0,54.0,44.7,-99.9,45,34,25,0.00,40.00,19,9,32,0.00
2013-8-20,93.0,78.7,69.0,52.0,42.9,31.0,46,31,12,0.00,40.00,11,3,20,0.00
2013-8-21,94.0,80.7,71.0,42.0,36.0,25.0,32,22,10,0.00,40.00,11,3,21,0.00
2013-8-22,94.0,84.2,74.0,38.0,35.4,31.0,25,18,12,0.00,40.00,12,5,23,0.00
2013-8-23,94.0,81.0,72.0,48.0,38.3,27.0,31,23,12,0.00,40.00,11,3,24,0.00
2013-8-24,84.0,74.1,67.0,63.0,48.2,-99.9,83,44,19,0.00,40.00,18,9,31,0.00
2013-8-25,80.0,71.9,66.0,62.0,58.0,53.0,80,62,47,0.00,40.00,16,10,25,0.00
2013-8-26,73.0,68.5,64.0,64.0,60.0,55.0,89,75,62,0.00,40.00,14,11,23,0.03
2013-8-27,81.0,73.2,69.0,60.0,58.1,57.0,68,60,47,0.00,40.00,10,8,17,0.01
2013-8-28,90.0,83.8,74.0,52.0,50.0,48.0,41,32,26,0.00,40.00,11,6,22,0.00
2013-8-29,79.0,74.2,68.0,69.0,65.0,49.0,93,74,41,0.00,40.00,16,11,26,0.01
2013-8-30,80.0,72.1,68.0,69.0,66.2,62.0,93,82,58,0.00,40.00,18,8,30,0.67
2013-8-31,82.0,72.6,66.0,67.0,62.9,-99.9,94,75,52,0.00,40.00,11,3,19,0.09
2013-9-1,85.0,74.1,65.0,64.0,60.3,50.0,93,66,30,0.00,40.00,10,4,18,0.00
2013-9-2,89.0,76.4,67.0,62.0,56.2,50.0,79,53,28,0.00,40.00,7,2,21,0.01
2013-9-3,90.0,79.0,70.0,60.0,53.3,47.0,68,44,24,0.00,40.00,8,2,20,0.01
2013-9-4,92.0,79.0,71.0,63.0,53.3,49.0,68,43,25,0.00,40.00,18,4,32,0.00
2013-9-5,93.0,79.9,72.0,57.0,53.2,50.0,56,41,24,0.00,40.00,14,2,36,0.18
2013-9-6,91.0,81.4,73.0,56.0,49.0,43.0,54,34,20,0.00,40.00,10,3,18,0.18
2013-9-7,83.0,73.2,68.0,64.0,56.2,-99.9,72,57,37,0.00,40.00,20,10,30,0.02
2013-9-8,88.0,76.2,68.0,59.0,48.5,34.0,67,42,16,0.00,40.00,10,3,18,0.02
2013-9-9,83.0,74.4,67.0,46.0,41.1,36.0,43,31,22,0.00,40.00,11,4,22,0.01
2013-9-10,79.0,70.7,62.0,61.0,43.3,33.0,89,40,23,0.00,40.00,11,5,22,0.01
2013-9-11,82.0,71.5,62.0,43.0,36.0,30.0,49,28,18,0.00,40.00,9,3,19,0.00
2013-9-12,86.0,71.9,65.0,48.0,36.1,29.0,50,29,13,0.00,40.00,8,3,18,0.00
2013-9-13,89.0,76.9,68.0,44.0,31.6,19.0,35,21,8,0.00,40.00,9,2,19,0.00
2013-9-14,93.0,79.3,71.0,46.0,32.6,-99.9,34,20,10,0.00,40.00,9,3,20,0.00
2013-9-15,95.0,81.5,73.0,38.0,33.4,28.0,26,18,11,0.00,40.00,11,4,21,0.00
2013-9-16,92.0,80.0,68.0,50.0,35.4,29.0,45,22,11,0.00,40.00,12,4,23,0.00
2013-9-17,82.0,73.6,59.0,38.0,30.4,26.0,45,21,13,0.00,40.00,11,4,23,0.00
2013-9-18,63.0,59.8,59.0,50.0,39.0,23.0,68,48,25,0.00,40.00,4,1,9,0.00
2013-9-19,88.0,72.5,60.0,54.0,41.5,21.0,69,38,9,0.00,40.00,13,3,24,0.00
2013-9-20,83.0,70.8,57.0,53.0,45.6,32.0,86,44,22,0.00,40.00,12,4,20,0.00
2013-9-21,74.0,60.7,50.0,55.0,47.3,-99.9,100,67,37,0.00,40.00,14,6,22,0.00
2013-9-22,72.0,58.0,48.0,53.0,47.6,41.0,100,73,35,0.00,40.00,11,6,24,0.00
2013-9-23,84.0,71.7,53.0,47.0,30.9,22.0,79,27,11,0.00,40.00,22,8,39,0.00
2013-9-24,83.0,71.0,59.0,38.0,31.5,28.0,35,24,16,0.00,40.00,13,5,22,0.00
2013-9-25,70.0,61.1,49.0,51.0,36.4,28.0,99,43,27,0.00,40.00,18,8,35,0.00
2013-9-26,63.0,52.6,46.0,47.0,43.3,33.0,98,74,34,0.00,40.00,15,8,23,0.00
2013-9-27,72.0,59.3,46.0,42.0,22.2,14.0,86,27,13,0.00,40.00,13,7,20,0.00
2013-9-28,77.0,65.7,59.0,23.0,17.9,-99.9,23,17,9,0.00,40.00,16,10,28,0.00
2013-9-29,83.0,69.1,59.0,33.0,20.6,9.0,35,18,7,0.00,40.00,9,3,19,0.00
2013-9-30,83.0,70.4,60.0,34.0,24.3,14.0,34,18,11,0.00,40.00,10,4,20,0.00
2013-10-1,77.0,65.6,59.0,40.0,38.6,35.0,49,38,22,0.00,40.00,8,2,18,0.00
2013-10-2,74.0,63.3,55.0,51.0,42.1,33.0,86,49,24,0.00,40.00,13,4,20,0.00
2013-10-3,68.0,57.0,47.0,56.0,49.7,46.0,99,80,48,0.00,40.00,10,5,26,0.00
2013-10-4,69.0,60.5,51.0,52.0,16.4,-2.0,99,28,6,0.00,40.00,29,16,48,0.00
2013-10-5,72.0,64.2,58.0,16.0,7.7,-4.0,18,11,6,0.00,40.00,32,23,50,0.00
2013-10-6,79.0,68.9,62.0,14.0,8.7,2.0,13,10,5,0.00,40.00,28,16,44,0.00
2013-10-7,80.0,68.5,55.0,32.0,15.0,4.0,38,15,6,0.00,40.00,12,6,21,0.00
2013-10-8,68.0,58.1,48.0,51.0,30.5,14.0,99,42,14,0.00,40.00,12,5,21,0.00
2013-10-9,49.0,43.7,39.0,48.0,43.7,39.0,100,100,98,0.00,40.00,17,10,31,1.62
2013-10-10,54.0,45.7,36.0,43.0,39.7,36.0,100,81,61,0.00,40.00,13,5,19,1.14
2013-10-11,69.0,56.7,42.0,42.0,38.1,31.0,99,52,32,0.00,40.00,10,3,16,0.01
2013-10-12,71.0,59.1,50.0,51.0,37.7,-99.9,98,50,24,0.00,40.00,9,3,16,0.00
2013-10-13,63.0,53.8,48.0,49.0,41.7,30.0,97,66,32,0.00,40.00,13,4,22,0.00
2013-10-14,69.0,61.6,48.0,45.0,27.6,25.0,86,30,21,0.00,40.00,20,14,31,0.00
2013-10-15,71.0,62.3,56.0,26.0,23.7,17.0,29,23,18,0.00,40.00,16,12,32,0.00
2013-10-16,70.0,61.3,52.0,23.0,17.7,11.0,29,19,11,0.00,40.00,17,11,32,0.00
2013-10-17,74.0,62.8,54.0,33.0,21.4,14.0,45,22,12,0.00,40.00,7,2,13,0.00
2013-10-18,76.0,65.5,54.0,31.0,20.5,15.0,42,20,10,0.00,40.00,15,7,26,0.00
2013-10-19,83.0,67.6,59.0,35.0,17.5,-99.9,36,17,8,0.00,40.00,11,4,18,0.00
2013-10-20,79.0,65.9,58.0,40.0,23.8,11.0,50,23,10,0.00,40.00,9,3,17,0.00
2013-10-21,79.0,67.6,57.0,37.0,20.5,11.0,45,18,8,0.00,40.00,13,7,22,0.00
2013-10-22,77.0,69.8,64.0,24.0,18.4,14.0,19,14,11,0.00,40.00,17,11,28,0.00
2013-10-23,76.0,63.9,50.0,50.0,31.5,17.0,95,38,12,0.00,40.00,13,6,21,0.00
2013-10-24,70.0,59.6,50.0,50.0,44.1,32.0,93,58,37,0.00,40.00,7,2,12,0.00
2013-10-25,83.0,72.1,61.0,46.0,27.3,17.0,46,20,13,0.00,40.00,8,3,13,0.00
2013-10-26,79.0,70.2,65.0,31.0,24.2,-99.9,26,18,13,0.00,40.00,13,4,25,0.00
2013-10-27,78.0,65.2,48.0,49.0,31.6,22.0,99,34,13,0.00,40.00,15,5,23,0.00
2013-10-28,49.0,44.8,41.0,48.0,43.6,-99.9,100,99,93,0.00,40.00,17,13,34,0.17
2013-10-29,50.0,44.8,39.0,44.0,40.3,36.0,100,85,61,0.00,40.00,9,5,18,0.09
2013-10-30,65.0,51.2,39.0,45.0,36.5,27.0,100,64,31,0.00,40.00,10,4,18,0.00
2013-10-31,65.0,56.4,48.0,31.0,23.0,19.0,48,29,19,0.00,40.00,19,14,32,0.00
2013-11-1,70.0,62.5,53.0,25.0,23.2,20.0,28,22,18,0.00,40.00,19,15,33,0.00
2013-11-2,74.0,60.8,51.0,32.0,23.8,-99.9,44,26,12,0.00,40.00,16,7,23,0.00
2013-11-3,62.0,53.1,45.0,48.0,36.3,24.0,99,57,31,0.00,40.00,11,3,18,0.00
2013-11-4,51.0,46.9,44.0,47.0,44.8,42.0,100,93,73,0.00,40.00,9,4,15,0.00
2013-11-5,59.0,51.1,41.0,44.0,15.4,-4.0,100,32,9,0.00,40.00,24,11,38,0.00
2013-11-6,65.0,56.3,51.0,8.0,0.9,-8.0,13,11,5,0.00,40.00,24,18,38,0.00
2013-11-7,70.0,62.4,57.0,14.0,9.9,2.0,17,13,7,0.00,40.00,21,14,34,0.00
2013-11-8,76.0,62.8,56.0,19.0,11.3,6.0,22,14,8,0.00,40.00,6,2,12,0.00
2013-11-9,75.0,61.2,54.0,19.0,11.8,-99.9,22,15,7,0.00,40.00,8,1,13,0.00
2013-11-10,74.0,64.7,57.0,19.0,13.4,0.0,20,14,9,0.00,40.00,9,5,17,0.00
2013-11-11,76.0,65.9,58.0,35.0,25.5,18.0,33,22,17,0.00,40.00,14,8,24,0.00
2013-11-12,77.0,70.0,65.0,32.0,26.0,22.0,22,19,16,0.00,40.00,18,10,28,0.00
2013-11-13,75.0,69.3,65.0,28.0,23.2,19.0,22,17,15,0.00,40.00,18,14,25,0.00
2013-11-14,79.0,68.5,57.0,29.0,21.9,16.0,33,18,11,0.00,40.00,14,7,23,0.00
2013-11-15,58.0,51.0,45.0,48.0,41.3,27.0,100,74,31,0.00,40.00,10,5,19,0.00
2013-11-16,47.0,43.8,42.0,47.0,42.7,-99.9,100,99,97,0.00,40.00,13,9,23,0.10
2013-11-17,61.0,49.2,40.0,46.0,41.4,37.0,100,77,51,0.00,40.00,9,3,15,0.01
2013-11-18,63.0,52.4,45.0,48.0,42.0,37.0,100,69,51,0.00,40.00,14,5,20,0.00
2013-11-19,50.0,47.0,45.0,49.0,46.7,45.0,100,98,87,0.00,40.00,10,6,16,0.00
2013-11-20,49.0,46.2,44.0,49.0,46.2,44.0,100,100,99,0.00,40.00,11,6,16,0.02
2013-11-21,49.0,46.8,42.0,49.0,46.8,42.0,100,100,100,0.00,40.00,17,8,24,0.38
2013-11-22,47.0,42.6,39.0,46.0,38.5,33.0,100,86,73,0.00,40.00,20,12,31,0.22
2013-11-23,50.0,42.2,39.0,38.0,33.5,-99.9,83,74,62,0.00,40.00,16,10,25,0.02
2013-11-24,54.0,45.4,40.0,36.0,33.5,30.0,77,63,48,0.00,40.00,13,9,19,0.00
2013-11-25,62.0,51.4,40.0,37.0,31.1,19.0,74,49,22,0.00,40.00,18,4,30,0.00
2013-11-26,59.0,54.4,51.0,33.0,26.9,19.0,46,35,24,0.00,40.00,22,18,36,0.00
2013-11-27,57.0,51.5,46.0,30.0,28.7,28.0,49,41,33,0.00,40.00,23,19,38,0.00
2013-11-28,55.0,49.6,46.0,29.0,27.9,27.0,50,43,35,0.00,40.00,20,13,31,0.00
2013-11-29,56.0,50.7,46.0,41.0,33.6,28.0,77,53,39,0.00,40.00,16,11,27,0.05
2013-11-30,63.0,54.3,49.0,37.0,30.2,-99.9,58,41,32,0.00,40.00,15,11,24,0.05
2013-12-1,64.0,57.2,52.0,29.0,18.7,7.0,39,24,11,0.00,40.00,16,10,29,0.00
2013-12-2,70.0,58.4,51.0,26.0,17.7,12.0,37,21,12,0.00,40.00,10,3,14,0.00
2013-12-3,57.0,49.1,43.0,48.0,32.6,18.0,100,60,27,0.00,40.00,21,10,32,0.01
2013-12-4,48.0,40.3,33.0,46.0,34.6,28.0,100,83,48,0.00,40.00,18,8,36,0.07
2013-12-5,45.0,36.4,32.0,36.0,31.8,24.0,100,86,44,0.00,40.00,7,2,16,0.03
2013-12-6,43.0,36.6,32.0,35.0,31.3,27.0,99,82,53,0.00,40.00,8,4,17,0.02
2013-12-7,40.0,35.0,33.0,40.0,33.9,-99.9,100,98,97,0.00,40.00,18,11,34,0.32
2013-12-8,41.0,35.2,32.0,37.0,32.9,24.0,100,92,69,0.00,40.00,19,8,28,0.13
2013-12-9,42.0,35.5,31.0,24.0,-1.6,-26.0,69,25,5,0.00,40.00,34,21,53,0.00
2013-12-10,50.0,43.2,34.0,5.0,-4.0,-17.0,17,13,9,0.00,40.00,32,23,53,0.00
2013-12-11,55.0,49.7,44.0,8.0,6.0,2.0,21,17,14,0.00,40.00,23,18,34,0.00
2013-12-12,62.0,50.5,43.0,30.0,14.1,3.0,57,25,15,0.00,40.00,22,8,36,0.00
2013-12-13,59.0,48.8,40.0,27.0,18.7,11.0,53,31,17,0.00,40.00,17,4,30,0.00
2013-12-14,61.0,53.1,45.0,16.0,7.7,-99.9,29,17,9,0.00,40.00,29,18,52,0.00
2013-12-15,64.0,59.6,53.0,18.0,10.7,2.0,17,14,10,0.00,40.00,32,28,50,0.00
2013-12-16,69.0,65.5,62.0,16.0,15.3,14.0,16,14,12,0.00,40.00,28,22,47,0.00
2013-12-17,73.0,66.6,63.0,19.0,16.9,15.0,17,15,13,0.00,40.00,23,17,34,0.00
2013-12-18,70.0,58.3,42.0,43.0,23.8,16.0,100,32,14,0.00,40.00,9,4,20,0.00
2013-12-19,43.0,39.0,35.0,43.0,39.0,35.0,100,100,99,0.00,40.00,18,9,26,0.79
2013-12-20,49.0,40.2,33.0,41.0,36.3,31.0,100,87,55,0.00,40.00,7,2,12,0.01
2013-12-21,48.0,41.2,36.0,43.0,37.0,-99.9,100,88,71,0.00,40.00,10,4,15,0.00
2013-12-22,60.0,50.5,42.0,34.0,28.2,25.0,73,43,31,0.00,40.00,11,6,21,0.00
2013-12-23,58.0,53.2,48.0,30.0,25.6,24.0,49,34,30,0.00,40.00,26,19,41,0.00
2013-12-24,64.0,57.6,50.0,28.0,24.7,21.0,38,28,22,0.00,40.00,25,17,37,0.00
2013-12-25,63.0,57.2,50.0,24.0,10.0,-9.0,34,17,5,0.00,40.00,25,19,42,0.00
2013-12-26,64.0,58.5,54.0,2.0,-2.9,-8.0,11,8,6,0.00,40.00,27,22,47,0.00
2013-12-27,67.0,60.5,57.0,8.0,-0.3,-10.0,14,9,5,0.00,40.00,23,14,38,0.00
2013-12-28,64.0,56.4,51.0,15.0,7.8,-99.9,21,15,9,0.00,40.00,11,3,18,0.00
2013-12-29,61.0,53.1,44.0,10.0,2.4,-7.0,22,13,7,0.00,40.00,20,11,31,0.00
2013-12-30,69.0,55.4,48.0,9.0,-0.4,-9.0,16,10,6,0.00,40.00,19,6,31,0.00
2013-12-31,70.0,57.2,51.0,9.0,2.3,-7.0,18,11,6,0.00,40.00,6,2,13,0.00
2014-1-1,65.0,58.9,51.0,17.0,9.7,4.0,20,14,11,0.00,40.00,21,14,36,0.00
2014-1-2,65.0,58.7,55.0,21.0,18.6,14.0,25,21,17,0.00,40.00,19,15,28,0.00